Time;durP1;ratioP1;P1;durP2;ratioP2;P2;SDS_P1;SDS_P2;PMS_P1;PMS_P2;Temp;Humidity;BMP_temperature;BMP_pressure;BME280_temperature;BME280_humidity;BME280_pressure;Samples;Min_cycle;Max_cycle;Signal;HPM_P1;HPM_P2
2023/04/22 00:02:15;;;;;;;20.05;12.02;;;11.40;99.90;;;;;;4898309;29;20169;-78
2023/04/22 00:04:44;;;;;;;21.83;11.35;;;11.40;99.90;;;;;;4898523;29;20128;-77
2023/04/22 00:07:14;;;;;;;19.98;12.48;;;11.40;99.90;;;;;;4898195;29;20037;-77
2023/04/22 00:09:40;;;;;;;19.60;11.07;;;11.50;99.90;;;;;;4898571;29;20035;-78
2023/04/22 00:12:14;;;;;;;22.27;12.07;;;11.40;99.90;;;;;;4881756;29;20029;-78
2023/04/22 00:14:40;;;;;;;21.25;11.40;;;11.50;99.90;;;;;;4898729;29;20024;-78
2023/04/22 00:17:05;;;;;;;22.83;11.93;;;11.50;99.90;;;;;;4898469;29;20051;-76
2023/04/22 00:19:32;;;;;;;23.80;11.95;;;11.50;99.90;;;;;;4898442;29;20052;-73
2023/04/22 00:21:58;;;;;;;21.17;10.95;;;11.50;99.90;;;;;;4898086;29;20096;-78
2023/04/22 00:24:24;;;;;;;18.65;10.82;;;11.50;99.90;;;;;;4898452;29;20076;-78
2023/04/22 00:26:49;;;;;;;21.25;10.43;;;11.50;99.90;;;;;;4898025;29;20028;-77
2023/04/22 00:29:15;;;;;;;19.17;10.27;;;11.50;99.90;;;;;;4898207;29;20028;-78
2023/04/22 00:31:41;;;;;;;19.48;10.30;;;11.50;99.90;;;;;;4881560;29;20055;-78
2023/04/22 00:34:07;;;;;;;20.88;10.48;;;11.50;99.90;;;;;;4898107;29;20024;-78
2023/04/22 00:36:33;;;;;;;21.25;10.73;;;11.50;99.90;;;;;;4898905;29;20469;-78
2023/04/22 00:39:00;;;;;;;20.17;10.82;;;11.50;99.90;;;;;;4881240;29;20025;-79
2023/04/22 00:41:26;;;;;;;18.75;10.15;;;11.50;99.90;;;;;;4898004;29;20050;-78
2023/04/22 00:43:52;;;;;;;15.45;9.68;;;11.50;99.90;;;;;;4880978;29;20488;-73
2023/04/22 00:46:19;;;;;;;17.25;9.88;;;11.50;99.90;;;;;;4898126;29;20389;-77
2023/04/22 00:48:45;;;;;;;20.33;10.45;;;11.60;99.90;;;;;;4893215;29;20035;-77
2023/04/22 00:51:11;;;;;;;18.38;10.20;;;11.60;99.90;;;;;;4881005;29;20036;-78
2023/04/22 00:53:37;;;;;;;18.73;10.07;;;11.50;99.90;;;;;;4880765;29;20082;-77
2023/04/22 00:56:03;;;;;;;24.25;9.25;;;11.60;99.90;;;;;;4880128;29;20044;-77
2023/04/22 00:58:30;;;;;;;17.35;9.27;;;11.60;99.90;;;;;;4897641;29;20029;-75
2023/04/22 01:00:56;;;;;;;22.40;10.48;;;11.50;99.90;;;;;;4897555;29;20503;-77
2023/04/22 01:03:22;;;;;;;18.73;10.05;;;11.50;99.90;;;;;;4897128;29;20412;-73
2023/04/22 01:05:49;;;;;;;19.77;10.18;;;11.50;99.90;;;;;;4880797;29;20031;-73
2023/04/22 01:08:16;;;;;;;16.25;9.15;;;11.60;99.90;;;;;;4897302;29;20038;-76
2023/04/22 01:10:42;;;;;;;18.60;10.15;;;11.60;99.90;;;;;;4897193;29;20024;-77
2023/04/22 01:13:08;;;;;;;17.75;9.25;;;11.60;99.90;;;;;;4897521;29;20033;-75
2023/04/22 01:15:34;;;;;;;15.07;8.50;;;11.60;99.90;;;;;;4897625;29;20017;-76
2023/04/22 01:18:01;;;;;;;14.05;8.40;;;11.60;99.90;;;;;;4897565;29;20055;-75
2023/04/22 01:20:31;;;;;;;14.30;8.35;;;11.60;99.90;;;;;;4879790;29;20079;-75
2023/04/22 01:23:01;;;;;;;17.70;9.30;;;11.70;99.90;;;;;;4879287;29;20036;-74
2023/04/22 01:25:27;;;;;;;16.60;8.43;;;11.70;99.90;;;;;;4896601;29;20025;-77
2023/04/22 01:27:53;;;;;;;13.40;7.80;;;11.70;99.90;;;;;;4879219;29;20064;-73
2023/04/22 01:30:19;;;;;;;13.45;7.95;;;11.70;99.90;;;;;;4896482;29;20051;-74
2023/04/22 01:32:45;;;;;;;16.40;8.32;;;11.70;99.90;;;;;;4896216;29;20493;-74
2023/04/22 01:35:11;;;;;;;16.48;8.77;;;11.70;99.90;;;;;;4879527;29;20120;-77
2023/04/22 01:37:37;;;;;;;20.45;8.60;;;11.70;99.90;;;;;;4878614;29;20051;-77
2023/04/22 01:40:04;;;;;;;15.55;8.80;;;11.70;99.90;;;;;;4879728;29;20095;-76
2023/04/22 01:42:30;;;;;;;14.32;8.38;;;11.70;99.90;;;;;;4895836;29;20020;-77
2023/04/22 01:44:57;;;;;;;15.10;8.73;;;11.70;99.90;;;;;;4896072;29;20388;-74
2023/04/22 01:47:23;;;;;;;11.18;7.68;;;11.70;99.90;;;;;;4895934;29;20449;-77
2023/04/22 01:49:50;;;;;;;14.50;8.70;;;11.80;99.90;;;;;;4879097;29;20037;-77
2023/04/22 01:52:18;;;;;;;14.15;8.15;;;11.80;99.90;;;;;;4895643;29;20105;-74
2023/04/22 01:54:44;;;;;;;14.52;8.43;;;11.80;99.90;;;;;;4879206;29;20062;-77
2023/04/22 01:57:12;;;;;;;16.13;7.68;;;11.80;99.90;;;;;;4878439;29;20135;-77
2023/04/22 01:59:39;;;;;;;15.13;7.43;;;11.80;99.90;;;;;;4878914;29;20476;-76
2023/04/22 02:02:05;;;;;;;12.98;7.10;;;11.80;99.90;;;;;;4895966;29;20036;-77
2023/04/22 02:04:32;;;;;;;13.23;7.93;;;11.80;99.90;;;;;;4895646;29;20031;-76
2023/04/22 02:06:58;;;;;;;16.52;8.93;;;11.80;99.90;;;;;;4878483;29;20485;-76
2023/04/22 02:09:24;;;;;;;15.43;8.25;;;11.80;99.90;;;;;;4879207;29;20035;-76
2023/04/22 02:11:50;;;;;;;15.52;8.48;;;11.80;99.90;;;;;;4895397;29;20032;-76
2023/04/22 02:14:19;;;;;;;16.80;7.50;;;11.80;99.90;;;;;;4897577;29;20075;-74
2023/04/22 02:16:45;;;;;;;14.70;7.55;;;11.70;99.90;;;;;;4898957;29;20120;-77
2023/04/22 02:19:11;;;;;;;17.85;7.20;;;11.70;99.90;;;;;;4844731;29;1127474;-77
2023/04/22 02:21:37;;;;;;;17.27;7.63;;;11.70;99.90;;;;;;4899891;29;20040;-72
2023/04/22 02:24:03;;;;;;;14.63;7.80;;;11.70;99.90;;;;;;4883368;29;20037;-75
2023/04/22 02:26:29;;;;;;;14.18;7.35;;;11.70;99.90;;;;;;4899834;29;20031;-76
2023/04/22 02:28:55;;;;;;;13.68;8.20;;;11.70;99.90;;;;;;4900105;29;20020;-76
2023/04/22 02:31:21;;;;;;;16.75;7.80;;;11.60;99.90;;;;;;4883106;29;20037;-76
2023/04/22 02:33:47;;;;;;;21.08;8.38;;;11.60;99.90;;;;;;4899986;29;20041;-75
2023/04/22 02:36:15;;;;;;;17.50;8.32;;;11.60;99.90;;;;;;4883171;29;20117;-76
2023/04/22 02:38:40;;;;;;;13.98;6.53;;;11.60;99.90;;;;;;4899874;29;20480;-76
2023/04/22 02:41:06;;;;;;;14.73;7.40;;;11.60;99.90;;;;;;4883223;29;20053;-77
2023/04/22 02:43:34;;;;;;;16.88;8.35;;;11.60;99.90;;;;;;4883311;29;20451;-75
2023/04/22 02:46:00;;;;;;;17.65;7.93;;;11.50;99.90;;;;;;4882910;29;20503;-73
2023/04/22 02:48:26;;;;;;;16.38;7.32;;;11.50;99.90;;;;;;4882911;29;20025;-75
2023/04/22 02:50:52;;;;;;;15.40;8.20;;;11.50;99.90;;;;;;4882545;29;20106;-74
2023/04/22 02:53:18;;;;;;;14.48;7.28;;;11.50;99.90;;;;;;4882627;29;20033;-73
2023/04/22 02:55:43;;;;;;;13.93;8.02;;;11.50;99.90;;;;;;4900121;29;20024;-75
2023/04/22 02:58:09;;;;;;;14.40;7.57;;;11.50;99.90;;;;;;4882909;29;20072;-74
2023/04/22 03:00:35;;;;;;;19.58;8.50;;;11.50;99.90;;;;;;4898244;29;20127;-75
2023/04/22 03:03:01;;;;;;;14.55;7.50;;;11.50;99.90;;;;;;4883008;29;20029;-75
2023/04/22 03:05:30;;;;;;;12.82;6.38;;;11.50;99.90;;;;;;4878739;29;20040;-75
2023/04/22 03:07:56;;;;;;;12.27;6.53;;;11.40;99.90;;;;;;4882683;29;20033;-74
2023/04/22 03:10:22;;;;;;;15.52;7.53;;;11.40;99.90;;;;;;4899052;29;20029;-76
2023/04/22 03:12:50;;;;;;;14.23;7.82;;;11.40;99.90;;;;;;4882862;29;20111;-76
2023/04/22 03:15:16;;;;;;;17.02;9.70;;;11.40;99.90;;;;;;4882439;29;20139;-77
2023/04/22 03:17:42;;;;;;;18.25;8.77;;;11.40;99.90;;;;;;4882646;29;20045;-76
2023/04/22 03:20:12;;;;;;;15.18;7.15;;;11.40;99.90;;;;;;4882147;29;20044;-76
2023/04/22 03:22:38;;;;;;;20.30;7.57;;;11.40;99.90;;;;;;4882482;29;20048;-76
2023/04/22 03:25:06;;;;;;;20.27;8.02;;;11.40;99.90;;;;;;4882226;29;20028;-75
2023/04/22 03:27:32;;;;;;;17.02;7.95;;;11.30;99.90;;;;;;4882062;29;20373;-74
2023/04/22 03:29:59;;;;;;;18.10;7.40;;;11.30;99.90;;;;;;4882406;29;20524;-76
2023/04/22 03:32:25;;;;;;;18.60;7.00;;;11.30;99.90;;;;;;4882292;29;20084;-76
2023/04/22 03:35:04;;;;;;;15.55;8.65;;;11.30;99.90;;;;;;4882388;29;20036;-73
2023/04/22 03:37:30;;;;;;;18.02;7.80;;;11.30;99.90;;;;;;4881854;29;20412;-76
2023/04/22 03:39:55;;;;;;;14.52;7.22;;;11.30;99.90;;;;;;4882267;29;20029;-76
2023/04/22 03:42:21;;;;;;;20.15;7.97;;;11.20;99.90;;;;;;4882052;29;20042;-77
2023/04/22 03:44:47;;;;;;;17.92;7.63;;;11.30;99.90;;;;;;4881077;29;20056;-77
2023/04/22 03:47:15;;;;;;;13.63;7.38;;;11.20;99.90;;;;;;4881968;29;20441;-77
2023/04/22 03:49:46;;;;;;;21.63;7.43;;;11.20;99.90;;;;;;4882059;29;20028;-76
2023/04/22 03:52:12;;;;;;;17.98;7.70;;;11.20;99.90;;;;;;4881963;29;20036;-75
2023/04/22 03:54:45;;;;;;;13.88;7.25;;;11.20;99.90;;;;;;4881759;29;20184;-77
2023/04/22 03:57:11;;;;;;;16.50;7.95;;;11.20;99.90;;;;;;4881771;29;20135;-76
2023/04/22 03:59:37;;;;;;;16.27;7.95;;;11.20;99.90;;;;;;4866193;29;20040;-76
2023/04/22 04:02:03;;;;;;;17.23;7.82;;;11.20;99.90;;;;;;4879198;29;20411;-76
2023/04/22 04:04:29;;;;;;;15.80;8.55;;;11.30;99.90;;;;;;4898709;29;20017;-75
2023/04/22 04:06:59;;;;;;;18.63;7.93;;;11.40;99.90;;;;;;4881520;29;20048;-74
2023/04/22 04:09:26;;;;;;;13.10;7.60;;;11.50;99.90;;;;;;4880282;29;20547;-75
2023/04/22 04:11:52;;;;;;;10.63;7.15;;;11.70;99.90;;;;;;4881456;29;20067;-77
2023/04/22 04:14:18;;;;;;;14.52;7.88;;;11.90;99.90;;;;;;4898315;29;20064;-75
2023/04/22 04:16:46;;;;;;;19.80;7.60;;;12.20;99.90;;;;;;4881237;29;20403;-76
2023/04/22 04:19:19;;;;;;;;;;;12.50;99.90;;;;;;4881238;29;20057;-78
2023/04/22 04:21:44;;;;;;;15.40;6.95;;;12.80;99.90;;;;;;4898223;29;19911;-78
2023/04/22 04:24:10;;;;;;;14.48;6.80;;;12.80;99.90;;;;;;4880842;29;20060;-76
2023/04/22 04:26:42;;;;;;;14.23;7.43;;;12.60;99.90;;;;;;4881377;29;20031;-79
2023/04/22 04:29:13;;;;;;;14.80;8.00;;;12.40;99.90;;;;;;4879798;29;20084;-75
2023/04/22 04:31:41;;;;;;;12.88;7.45;;;12.40;99.90;;;;;;4885066;29;20039;-75
2023/04/22 04:34:07;;;;;;;15.30;8.18;;;12.60;99.90;;;;;;4868904;29;20037;-75
2023/04/22 04:36:38;;;;;;;16.73;8.43;;;13.30;99.90;;;;;;4873016;29;20480;-71
2023/04/22 04:39:17;;;;;;;17.30;8.25;;;14.00;99.90;;;;;;4874810;29;20032;-75
2023/04/22 04:41:44;;;;;;;26.70;6.97;;;14.70;99.90;;;;;;4872800;29;20033;-75
2023/04/22 04:44:11;;;;;;;23.02;6.85;;;15.00;99.90;;;;;;4868981;29;20476;-73
2023/04/22 04:46:38;;;;;;;14.25;6.85;;;14.70;99.90;;;;;;4870295;29;20386;-76
2023/04/22 04:49:08;;;;;;;16.13;7.43;;;15.20;99.90;;;;;;4874824;29;20203;-77
2023/04/22 04:51:41;;;;;;;12.77;7.45;;;15.50;99.90;;;;;;4866164;29;20033;-77
2023/04/22 04:54:07;;;;;;;16.20;7.32;;;15.90;99.90;;;;;;4871062;29;20177;-77
2023/04/22 04:56:37;;;;;;;13.05;7.22;;;16.20;97.80;;;;;;4878779;29;20489;-77
2023/04/22 04:59:04;;;;;;;24.65;7.57;;;16.70;96.70;;;;;;4880935;29;20032;-76
2023/04/22 05:01:32;;;;;;;12.77;7.30;;;16.90;95.00;;;;;;4880752;29;20040;-73
2023/04/22 05:04:03;;;;;;;19.27;8.23;;;17.20;94.50;;;;;;4866593;29;20040;-78
2023/04/22 05:06:30;;;;;;;17.20;7.10;;;17.00;93.60;;;;;;4890168;29;20040;-76
2023/04/22 05:09:01;;;;;;;15.75;7.38;;;16.70;93.70;;;;;;4874367;29;20078;-79
2023/04/22 05:11:27;;;;;;;12.63;7.28;;;16.00;95.20;;;;;;4871057;29;20041;-79
2023/04/22 05:13:55;;;;;;;16.83;7.03;;;15.50;96.30;;;;;;4868517;29;20036;-78
2023/04/22 05:16:29;;;;;;;11.25;7.38;;;15.20;98.10;;;;;;4886528;29;20040;-77
2023/04/22 05:18:55;;;;;;;17.02;7.18;;;15.00;99.30;;;;;;4879539;29;20083;-76
2023/04/22 05:21:22;;;;;;;16.70;6.93;;;15.00;99.90;;;;;;4881559;29;20040;-77
2023/04/22 05:23:49;;;;;;;16.48;7.15;;;15.10;99.90;;;;;;4881832;29;20040;-75
2023/04/22 05:26:14;;;;;;;15.75;6.53;;;14.90;99.90;;;;;;4880557;29;20028;-77
2023/04/22 05:28:42;;;;;;;13.63;6.47;;;15.00;99.90;;;;;;4879799;29;20024;-78
2023/04/22 05:31:08;;;;;;;18.60;8.20;;;15.00;99.90;;;;;;4880034;29;20413;-75
2023/04/22 05:33:34;;;;;;;15.68;6.65;;;15.00;99.90;;;;;;4880191;29;20036;-77
2023/04/22 05:36:00;;;;;;;14.07;7.07;;;15.00;99.90;;;;;;4897239;29;20029;-77
2023/04/22 05:38:27;;;;;;;15.75;7.38;;;14.80;99.90;;;;;;4879669;29;20040;-76
2023/04/22 05:40:54;;;;;;;13.45;6.43;;;14.80;99.90;;;;;;4880363;29;20029;-77
2023/04/22 05:43:20;;;;;;;17.40;7.50;;;14.70;99.90;;;;;;4879850;29;20084;-74
2023/04/22 05:45:54;;;;;;;11.60;6.63;;;14.90;99.90;;;;;;4879976;29;20123;-77
2023/04/22 05:48:20;;;;;;;17.10;7.07;;;15.10;99.90;;;;;;4880012;29;20029;-78
2023/04/22 05:50:56;;;;;;;15.45;7.30;;;15.10;99.90;;;;;;4880017;29;20036;-78
2023/04/22 05:53:22;;;;;;;15.27;7.65;;;15.20;99.90;;;;;;4880160;29;20116;-76
2023/04/22 05:55:48;;;;;;;13.23;6.65;;;15.20;99.90;;;;;;4880105;29;20033;-76
2023/04/22 05:58:14;;;;;;;16.88;6.60;;;15.40;99.90;;;;;;4879894;29;20037;-77
2023/04/22 06:00:52;;;;;;;14.18;7.50;;;15.30;99.90;;;;;;4879661;29;20024;-77
2023/04/22 06:03:40;;;;;;;15.93;7.68;;;15.20;99.90;;;;;;4896173;29;20108;-76
2023/04/22 06:06:07;;;;;;;14.18;6.72;;;15.40;99.90;;;;;;4879472;29;20040;-78
2023/04/22 06:08:32;;;;;;;15.30;7.53;;;15.50;99.90;;;;;;4895478;29;20430;-77
2023/04/22 06:10:58;;;;;;;13.45;6.25;;;15.60;99.90;;;;;;4879886;29;20040;-77
2023/04/22 06:13:27;;;;;;;20.98;6.95;;;15.40;99.90;;;;;;4879387;29;20071;-78
2023/04/22 06:15:53;;;;;;;14.23;7.10;;;15.30;99.90;;;;;;4896020;29;20056;-74
2023/04/22 06:18:19;;;;;;;14.25;7.07;;;15.40;99.90;;;;;;4879096;29;20041;-76
2023/04/22 06:20:46;;;;;;;12.38;6.70;;;15.20;99.90;;;;;;4894893;29;20407;-75
2023/04/22 06:23:14;;;;;;;15.80;7.65;;;15.40;99.90;;;;;;4879767;29;20116;-76
2023/04/22 06:25:41;;;;;;;12.57;6.70;;;15.70;99.90;;;;;;4895989;29;20035;-72
2023/04/22 06:28:08;;;;;;;13.00;6.63;;;15.60;99.90;;;;;;4864012;29;20074;-74
2023/04/22 06:30:35;;;;;;;16.30;7.68;;;15.40;99.90;;;;;;4877227;29;20037;-74
2023/04/22 06:33:01;;;;;;;13.43;7.55;;;15.40;99.90;;;;;;4879683;29;20054;-73
2023/04/22 06:35:27;;;;;;;13.93;7.93;;;15.40;99.90;;;;;;4895024;29;20021;-74
2023/04/22 06:37:54;;;;;;;15.20;7.47;;;15.50;99.90;;;;;;4878845;29;20493;-77
2023/04/22 06:40:26;;;;;;;16.48;7.00;;;15.70;99.90;;;;;;4876402;29;20066;-75
2023/04/22 06:43:05;;;;;;;14.32;7.55;;;15.70;99.90;;;;;;4877833;29;20120;-75
2023/04/22 06:45:49;;;;;;;18.83;7.80;;;15.80;99.90;;;;;;4896204;29;20093;-74
2023/04/22 06:48:38;;;;;;;16.42;8.45;;;16.00;99.90;;;;;;4838526;29;20084;-75
2023/04/22 06:51:24;;;;;;;15.40;7.53;;;16.30;99.90;;;;;;4837996;29;20110;-75
2023/04/22 06:53:51;;;;;;;15.00;7.82;;;16.30;99.90;;;;;;4837639;29;20050;-75
2023/04/22 06:56:16;;;;;;;13.07;7.28;;;16.40;99.90;;;;;;4837809;29;20042;-73
2023/04/22 06:58:42;;;;;;;18.48;9.20;;;16.70;99.90;;;;;;4822163;29;20050;-75
2023/04/22 07:01:08;;;;;;;13.85;8.02;;;16.60;99.10;;;;;;4824952;29;20034;-75
2023/04/22 07:03:36;;;;;;;12.38;7.22;;;16.80;99.20;;;;;;4825679;29;20034;-75
2023/04/22 07:06:07;;;;;;;12.48;6.82;;;17.00;98.40;;;;;;4825133;29;20436;-75
2023/04/22 07:08:34;;;;;;;14.50;8.23;;;17.00;97.90;;;;;;4840627;29;20030;-75
2023/04/22 07:11:01;;;;;;;14.90;8.00;;;17.30;97.80;;;;;;4840318;29;20060;-74
2023/04/22 07:13:35;;;;;;;14.45;7.10;;;17.30;96.80;;;;;;4832109;29;20049;-74
2023/04/22 07:16:01;;;;;;;14.88;7.75;;;16.90;97.40;;;;;;4831793;29;20038;-74
2023/04/22 07:18:28;;;;;;;14.13;7.07;;;17.20;97.50;;;;;;4841661;29;20091;-74
2023/04/22 07:20:54;;;;;;;14.77;8.00;;;17.40;96.90;;;;;;4840709;29;20030;-72
2023/04/22 07:23:20;;;;;;;16.20;8.25;;;17.10;96.20;;;;;;4841185;29;20058;-76
2023/04/22 07:25:46;;;;;;;14.90;8.32;;;17.30;97.20;;;;;;4873628;29;20048;-74
2023/04/22 07:28:11;;;;;;;14.43;7.10;;;17.20;96.40;;;;;;4886708;29;20134;-74
2023/04/22 07:30:37;;;;;;;17.50;8.88;;;17.60;97.20;;;;;;4899199;29;20032;-76
2023/04/22 07:33:03;;;;;;;16.15;7.75;;;17.70;96.00;;;;;;4899251;29;20430;-76
2023/04/22 07:35:32;;;;;;;14.38;8.07;;;17.70;95.70;;;;;;4899518;29;20052;-77
2023/04/22 07:37:58;;;;;;;13.60;8.75;;;17.70;95.60;;;;;;4898957;29;20048;-75
2023/04/22 07:40:24;;;;;;;12.95;7.70;;;17.80;96.00;;;;;;4899241;29;20481;-77
2023/04/22 07:42:50;;;;;;;15.15;8.15;;;17.90;95.20;;;;;;4882353;29;20032;-76
2023/04/22 07:45:16;;;;;;;18.58;8.05;;;18.10;96.20;;;;;;4899205;29;20033;-76
2023/04/22 07:47:42;;;;;;;14.02;8.07;;;18.20;95.80;;;;;;4899064;29;20103;-72
2023/04/22 07:50:08;;;;;;;15.18;8.40;;;18.50;95.30;;;;;;4898843;29;20393;-78
2023/04/22 07:52:35;;;;;;;13.75;7.85;;;18.50;93.10;;;;;;4898921;29;20105;-76
2023/04/22 07:55:01;;;;;;;13.43;7.38;;;18.60;93.70;;;;;;4898823;29;20083;-77
2023/04/22 07:57:26;;;;;;;12.07;7.32;;;18.70;94.40;;;;;;4898424;29;20068;-76
2023/04/22 07:59:52;;;;;;;16.50;6.90;;;18.60;94.10;;;;;;4884792;29;20033;-75
2023/04/22 08:02:18;;;;;;;15.43;7.40;;;18.90;91.40;;;;;;4896274;29;20044;-74
2023/04/22 08:04:44;;;;;;;15.00;6.68;;;18.90;91.70;;;;;;4866759;29;20033;-76
2023/04/22 08:07:10;;;;;;;13.52;6.20;;;18.70;91.70;;;;;;4888746;29;20044;-76
2023/04/22 08:09:36;;;;;;;14.45;6.93;;;18.70;92.50;;;;;;4897478;29;20028;-73
2023/04/22 08:12:02;;;;;;;16.27;7.47;;;18.90;91.40;;;;;;4896840;29;20081;-73
2023/04/22 08:14:28;;;;;;;13.73;7.20;;;18.90;93.40;;;;;;4898123;29;20378;-73
2023/04/22 08:16:54;;;;;;;10.93;6.28;;;19.20;93.70;;;;;;4897551;29;20128;-74
2023/04/22 08:19:20;;;;;;;10.65;5.97;;;19.30;91.50;;;;;;4890980;29;20052;-74
2023/04/22 08:21:47;;;;;;;16.70;7.60;;;19.40;92.20;;;;;;4879554;29;20036;-75
2023/04/22 08:24:13;;;;;;;11.27;6.63;;;19.00;92.20;;;;;;4874989;29;20066;-75
2023/04/22 08:26:39;;;;;;;11.63;5.72;;;19.40;94.00;;;;;;4879117;29;20052;-75
2023/04/22 08:29:06;;;;;;;11.68;6.25;;;19.40;87.10;;;;;;4879458;29;20489;-74
2023/04/22 08:31:33;;;;;;;13.30;6.22;;;19.30;85.60;;;;;;4879237;29;20029;-75
2023/04/22 08:33:58;;;;;;;11.48;4.68;;;19.30;88.10;;;;;;4879426;29;20458;-76
2023/04/22 08:36:26;;;;;;;13.05;6.25;;;19.20;79.10;;;;;;4879114;29;20040;-76
2023/04/22 08:38:53;;;;;;;18.33;6.65;;;19.30;84.40;;;;;;4878521;29;20025;-75
2023/04/22 08:41:21;;;;;;;11.90;6.15;;;19.20;86.10;;;;;;4873668;29;20036;-77
2023/04/22 08:43:48;;;;;;;13.38;6.45;;;19.50;86.70;;;;;;4877646;29;20120;-74
2023/04/22 08:46:18;;;;;;;11.63;5.70;;;19.30;85.30;;;;;;4876817;29;20381;-77
2023/04/22 08:48:48;;;;;;;13.05;5.95;;;19.60;86.00;;;;;;4876308;29;20418;-76
2023/04/22 08:51:15;;;;;;;11.05;5.85;;;19.60;86.40;;;;;;4879438;29;20033;-76
2023/04/22 08:53:43;;;;;;;9.25;5.55;;;19.80;85.40;;;;;;4875027;29;20037;-76
2023/04/22 08:56:11;;;;;;;10.30;6.00;;;19.90;85.60;;;;;;4871728;29;20033;-76
2023/04/22 08:58:41;;;;;;;13.20;6.80;;;19.70;84.10;;;;;;4857703;29;20416;-74
2023/04/22 09:01:08;;;;;;;13.55;6.07;;;20.10;86.80;;;;;;4876617;29;20033;-77
2023/04/22 09:03:40;;;;;;;12.88;6.00;;;19.80;79.50;;;;;;4875008;29;20497;-76
2023/04/22 09:06:09;;;;;;;12.85;6.07;;;20.00;84.50;;;;;;4859357;29;20030;-76
2023/04/22 09:08:35;;;;;;;8.77;6.20;;;20.00;83.30;;;;;;4863613;29;20025;-77
2023/04/22 09:11:02;;;;;;;18.13;6.43;;;20.10;84.60;;;;;;4872677;29;20052;-77
2023/04/22 09:13:28;;;;;;;9.90;5.70;;;20.30;87.90;;;;;;4859133;29;20041;-74
2023/04/22 09:15:54;;;;;;;13.98;6.13;;;20.20;84.10;;;;;;4859145;29;20482;-75
2023/04/22 09:18:20;;;;;;;8.77;5.45;;;20.30;84.30;;;;;;4860202;29;20029;-76
2023/04/22 09:20:47;;;;;;;12.23;5.93;;;20.40;80.10;;;;;;4895854;29;20169;-78
2023/04/22 09:23:13;;;;;;;13.50;6.10;;;20.20;79.50;;;;;;4902392;29;20116;-74
2023/04/22 09:25:43;;;;;;;12.10;6.47;;;20.30;80.50;;;;;;4896182;29;20099;-74
2023/04/22 09:28:16;;;;;;;10.77;6.57;;;20.30;85.50;;;;;;4913040;29;20052;-76
2023/04/22 09:30:44;;;;;;;12.25;5.78;;;20.40;81.80;;;;;;4912438;29;20067;-75
2023/04/22 09:33:12;;;;;;;12.48;6.72;;;20.40;79.70;;;;;;4915953;29;20016;-76
2023/04/22 09:35:39;;;;;;;9.15;4.72;;;20.30;76.00;;;;;;4915181;29;20052;-77
2023/04/22 09:38:10;;;;;;;7.30;4.68;;;20.30;74.20;;;;;;4915880;29;20909;-77
2023/04/22 09:40:40;;;;;;;7.00;4.60;;;20.40;75.70;;;;;;4913793;29;20483;-76
2023/04/22 09:43:08;;;;;;;10.27;4.78;;;20.70;74.40;;;;;;4915968;29;20043;-75
2023/04/22 09:45:34;;;;;;;10.55;4.95;;;20.70;74.80;;;;;;4914222;29;20024;-75
2023/04/22 09:48:07;;;;;;;9.40;4.40;;;20.80;74.20;;;;;;4915263;29;20115;-77
2023/04/22 09:50:32;;;;;;;;;;;20.70;76.00;;;;;;4889402;29;20041;-75
2023/04/22 09:53:05;;;;;;;8.40;4.53;;;21.00;76.70;;;;;;4915646;29;19934;-75
2023/04/22 09:55:34;;;;;;;11.27;5.15;;;21.10;75.70;;;;;;4915302;29;20103;-77
2023/04/22 09:58:11;;;;;;;8.52;4.40;;;21.00;78.70;;;;;;4915221;29;20071;-78
2023/04/22 10:00:46;;;;;;;7.25;4.05;;;21.00;75.30;;;;;;4915531;29;20032;-77
2023/04/22 10:03:12;;;;;;;4.85;3.90;;;20.90;74.30;;;;;;4915416;29;20048;-74
2023/04/22 10:05:38;;;;;;;9.32;4.57;;;21.00;73.90;;;;;;4915928;29;20254;-77
2023/04/22 10:08:05;;;;;;;11.50;4.72;;;21.10;72.20;;;;;;4915251;29;20036;-75
2023/04/22 10:10:32;;;;;;;11.65;5.60;;;21.00;72.80;;;;;;4915454;29;20043;-74
2023/04/22 10:13:01;;;;;;;8.30;4.40;;;20.90;70.90;;;;;;4915541;29;20095;-74
2023/04/22 10:15:33;;;;;;;7.28;4.45;;;20.90;70.40;;;;;;4915514;29;20532;-74
2023/04/22 10:18:01;;;;;;;10.32;4.07;;;21.30;76.40;;;;;;4915370;29;20400;-74
2023/04/22 10:20:28;;;;;;;8.40;4.68;;;21.40;74.60;;;;;;4898810;29;20484;-73
2023/04/22 10:22:56;;;;;;;8.00;4.50;;;21.60;74.50;;;;;;4896565;29;20033;-75
2023/04/22 10:25:24;;;;;;;10.25;4.43;;;21.50;71.00;;;;;;4895092;29;20025;-74
2023/04/22 10:28:07;;;;;;;7.20;3.85;;;21.30;68.90;;;;;;4895886;29;20033;-74
2023/04/22 10:30:38;;;;;;;8.20;3.40;;;21.50;71.60;;;;;;4896712;29;20092;-74
2023/04/22 10:33:30;;;;;;;9.13;3.75;;;21.30;72.80;;;;;;4895783;29;20054;-74
2023/04/22 10:36:17;;;;;;;6.90;3.92;;;21.40;71.50;;;;;;4897186;29;20032;-75
2023/04/22 10:38:55;;;;;;;6.72;3.92;;;21.40;72.30;;;;;;4887473;29;20064;-73
2023/04/22 10:41:24;;;;;;;9.52;4.28;;;21.80;75.40;;;;;;4887618;29;20078;-75
2023/04/22 10:44:09;;;;;;;7.90;4.53;;;21.80;75.60;;;;;;4895757;29;20108;-74
2023/04/22 10:46:38;;;;;;;6.38;3.95;;;22.00;76.10;;;;;;4894734;29;20557;-75
2023/04/22 10:49:17;;;;;;;7.88;3.85;;;22.00;72.60;;;;;;4892035;29;20036;-75
2023/04/22 10:51:42;;;;;;;7.32;3.63;;;22.00;72.20;;;;;;4896292;29;20556;-75
2023/04/22 10:54:26;;;;;;;6.85;3.92;;;21.60;74.60;;;;;;4899842;29;20123;-73
2023/04/22 10:57:08;;;;;;;7.55;4.15;;;21.80;71.30;;;;;;4897607;29;20097;-75
2023/04/22 11:00:00;;;;;;;8.52;4.38;;;21.70;71.30;;;;;;4883580;29;20035;-73
2023/04/22 11:02:26;;;;;;;5.45;4.05;;;21.60;75.10;;;;;;4893640;29;20045;-73
2023/04/22 11:05:18;;;;;;;14.68;5.82;;;21.30;71.60;;;;;;4897764;29;20092;-74
2023/04/22 11:07:45;;;;;;;11.45;4.93;;;21.70;70.80;;;;;;4896612;29;20051;-75
2023/04/22 11:10:39;;;;;;;16.17;5.60;;;21.70;68.40;;;;;;4898166;29;20037;-75
2023/04/22 11:13:06;;;;;;;7.47;3.92;;;21.60;66.80;;;;;;4888107;29;20032;-74
2023/04/22 11:15:33;;;;;;;6.85;4.32;;;21.60;67.50;;;;;;4898306;29;20024;-75
2023/04/22 11:17:59;;;;;;;18.25;7.07;;;21.50;71.00;;;;;;4898471;29;20033;-75
2023/04/22 11:20:26;;;;;;;13.13;6.05;;;21.90;71.50;;;;;;4897608;29;20132;-74
2023/04/22 11:22:54;;;;;;;9.48;4.68;;;22.10;70.40;;;;;;4898832;29;20031;-74
2023/04/22 11:25:21;;;;;;;9.45;4.47;;;22.20;73.20;;;;;;4898122;29;20021;-74
2023/04/22 11:27:47;;;;;;;9.20;4.03;;;22.00;69.70;;;;;;4897232;29;20037;-73
2023/04/22 11:30:15;;;;;;;10.48;4.13;;;21.90;69.30;;;;;;4897993;29;20476;-74
2023/04/22 11:32:43;;;;;;;10.07;3.88;;;21.90;68.50;;;;;;4897808;29;20029;-73
2023/04/22 11:35:12;;;;;;;10.80;4.05;;;21.80;70.90;;;;;;4881230;29;20089;-74
2023/04/22 11:37:45;;;;;;;6.78;4.13;;;21.80;69.60;;;;;;4897493;29;20528;-73
2023/04/22 11:40:24;;;;;;;8.52;4.07;;;21.80;67.60;;;;;;4897796;29;20029;-73
2023/04/22 11:42:50;;;;;;;10.50;4.30;;;21.70;66.10;;;;;;4896060;29;20472;-73
2023/04/22 11:45:16;;;;;;;10.85;4.25;;;21.50;66.90;;;;;;4892740;29;20040;-72
2023/04/22 11:47:42;;;;;;;8.85;4.10;;;21.40;73.10;;;;;;4893932;29;20044;-72
2023/04/22 11:50:10;;;;;;;5.53;3.35;;;21.40;71.20;;;;;;4865093;29;20032;-73
2023/04/22 11:52:49;;;;;;;10.20;3.60;;;21.50;67.40;;;;;;4899063;29;20032;-74
2023/04/22 11:55:31;;;;;;;6.85;4.05;;;21.30;73.00;;;;;;4898833;29;20040;-73
2023/04/22 11:58:17;;;;;;;9.80;4.03;;;21.30;71.20;;;;;;4898512;29;20369;-72
2023/04/22 12:00:47;;;;;;;5.78;3.75;;;21.10;71.10;;;;;;4898355;29;20105;-72
2023/04/22 12:03:13;;;;;;;7.57;3.72;;;20.80;72.80;;;;;;4898605;29;20028;-72
2023/04/22 12:05:42;;;;;;;7.18;4.05;;;20.80;73.70;;;;;;4898333;29;20028;-73
2023/04/22 12:08:19;;;;;;;6.47;3.90;;;20.70;71.80;;;;;;4898930;29;20028;-73
2023/04/22 12:10:48;;;;;;;8.38;4.15;;;20.70;72.00;;;;;;4898233;29;20037;-74
2023/04/22 12:13:27;;;;;;;6.85;3.75;;;20.80;72.00;;;;;;4898493;29;20052;-73
2023/04/22 12:15:56;;;;;;;5.43;3.58;;;20.90;69.10;;;;;;4898464;29;20033;-74
2023/04/22 12:18:32;;;;;;;7.95;4.45;;;20.90;72.10;;;;;;4898256;29;20041;-73
2023/04/22 12:21:11;;;;;;;10.95;4.65;;;20.50;71.00;;;;;;4898521;29;20101;-73
2023/04/22 12:24:09;;;;;;;12.45;4.50;;;20.70;74.50;;;;;;4898391;29;20032;-73
2023/04/22 12:26:36;;;;;;;10.45;4.85;;;20.60;73.90;;;;;;4804108;29;20096;-72
2023/04/22 12:29:03;;;;;;;19.10;4.70;;;20.50;73.90;;;;;;4803852;29;20042;-72
2023/04/22 12:31:29;;;;;;;10.40;5.45;;;20.20;75.40;;;;;;4804305;29;20046;-72
2023/04/22 12:33:55;;;;;;;12.32;5.55;;;20.30;75.50;;;;;;4803748;29;20406;-74
2023/04/22 12:36:22;;;;;;;8.75;4.43;;;20.30;74.90;;;;;;4804241;29;20165;-74
2023/04/22 12:38:48;;;;;;;7.60;4.35;;;20.50;76.20;;;;;;4809725;29;20521;-73
2023/04/22 12:41:15;;;;;;;10.65;4.75;;;20.40;73.50;;;;;;4803941;29;20045;-72
2023/04/22 12:43:41;;;;;;;8.63;4.47;;;20.50;75.00;;;;;;4803573;29;20039;-72
2023/04/22 12:46:08;;;;;;;6.60;3.80;;;20.50;72.90;;;;;;4804013;29;20045;-73